| time (UTC) | temp F | wind direction | speed knots | gust knots | rain 1hr in | rain 24hr in | rain mn in | humidity % | barometer mb |
| 20260502181732 | 69 | 0.0 | 0.0 | 0.00 | 0.00 | 0.00 | 30 | ||
| 20260502180732 | 70 | 0.0 | 0.0 | 0.00 | 0.00 | 0.00 | 29 | ||
| 20260502163732 | 75 | 0.0 | 0.0 | 0.00 | 0.00 | 0.00 | 22 | ||
| 20260502162732 | 76 | 0.0 | 0.0 | 0.00 | 0.00 | 0.00 | 20 | ||
| 20260502161732 | 77 | 0.0 | 0.0 | 0.00 | 0.00 | 0.00 | 20 | ||
| 20260502160732 | 76 | 0.0 | 0.0 | 0.00 | 0.00 | 0.00 | 20 | ||
| 20260502151733 | 75 | 0.0 | 0.0 | 0.00 | 0.00 | 0.00 | 22 | ||
| 20260502150733 | 76 | 0.0 | 0.0 | 0.00 | 0.00 | 0.00 | 22 | ||
| 20260502130732 | 78 | 0.0 | 0.0 | 0.00 | 0.00 | 0.00 | 25 | ||
| 20260502123732 | 78 | 0.0 | 0.0 | 0.00 | 0.00 | 0.00 | 26 | ||
| 20260502122733 | 78 | 0.0 | 0.0 | 0.00 | 0.00 | 0.00 | 27 | ||
| 20260502121732 | 77 | 0.0 | 0.0 | 0.00 | 0.00 | 0.00 | 27 | ||
| 20260502120732 | 77 | 0.0 | 0.0 | 0.00 | 0.00 | 0.00 | 28 | ||
| 20260502115732 | 76 | 0.0 | 0.0 | 0.00 | 0.00 | 0.00 | 28 | ||
| 20260502114732 | 76 | 0.0 | 0.0 | 0.00 | 0.00 | 0.00 | 29 | ||
| 20260502113732 | 76 | 0.0 | 0.0 | 0.00 | 0.00 | 0.00 | 29 | ||
| 20260502112733 | 75 | 0.0 | 0.0 | 0.00 | 0.00 | 0.00 | 31 | ||
| 20260502111732 | 75 | 0.0 | 0.0 | 0.00 | 0.00 | 0.00 | 32 | ||
| 20260502110732 | 74 | 0.0 | 0.0 | 0.00 | 0.00 | 0.00 | 32 | ||
| 20260502105732 | 74 | 0.0 | 0.0 | 0.00 | 0.00 | 0.00 | 32 | ||
| 20260502104732 | 73 | 0.0 | 0.0 | 0.00 | 0.00 | 0.00 | 33 | ||
| 20260502103732 | 73 | 0.0 | 0.0 | 0.00 | 0.00 | 0.00 | 33 | ||
| 20260502102732 | 73 | 0.0 | 0.0 | 0.00 | 0.00 | 0.00 | 34 | ||
| 20260502101732 | 72 | 0.0 | 0.0 | 0.00 | 0.00 | 0.00 | 35 | ||
| 20260502100732 | 71 | 0.0 | 0.0 | 0.00 | 0.00 | 0.00 | 36 | ||
| 20260502090733 | 67 | 0.0 | 0.0 | 0.00 | 0.00 | 0.00 | 41 | ||
| 20260502070732 | 57 | 0.0 | 0.0 | 0.00 | 0.00 | 0.00 | 51 | ||
| 20260502065732 | 56 | 0.0 | 0.0 | 0.00 | 0.00 | 0.00 | 51 | ||
| 20260502064732 | 56 | 0.0 | 0.0 | 0.00 | 0.00 | 0.00 | 52 | ||
| 20260502063733 | 55 | 0.0 | 0.0 | 0.00 | 0.00 | 0.00 | 52 | ||
| 20260502062735 | 55 | 0.0 | 0.0 | 0.00 | 0.00 | 0.00 | 53 | ||
| 20260502061733 | 54 | 0.0 | 0.0 | 0.00 | 0.00 | 0.00 | 53 | ||
| 20260502060733 | 54 | 0.0 | 0.0 | 0.00 | 0.00 | 0.00 | 53 | ||
| 20260502055733 | 53 | 0.0 | 0.0 | 0.00 | 0.00 | 0.00 | 54 | ||
| 20260502054732 | 53 | 0.0 | 0.0 | 0.00 | 0.00 | 0.00 | 55 | ||
| 20260502053732 | 52 | 0.0 | 0.0 | 0.00 | 0.00 | 0.00 | 56 | ||
| 20260502052733 | 51 | 0.0 | 0.0 | 0.00 | 0.00 | 0.00 | 57 | ||
| 20260502051733 | 51 | 0.0 | 0.0 | 0.00 | 0.00 | 0.00 | 57 | ||
| 20260502050733 | 50 | 0.0 | 0.0 | 0.00 | 0.00 | 0.00 | 57 | ||
| 20260502045732 | 50 | 0.0 | 0.0 | 0.00 | 0.00 | 0.00 | 58 | ||
| 20260502044732 | 50 | 0.0 | 0.0 | 0.00 | 0.00 | 0.00 | 58 | ||
| 20260502043732 | 49 | 0.0 | 0.0 | 0.00 | 0.00 | 0.00 | 58 | ||
| 20260502042733 | 49 | 0.0 | 0.0 | 0.00 | 0.00 | 0.00 | 59 | ||
| 20260502041732 | 48 | 0.0 | 0.0 | 0.00 | 0.00 | 0.00 | 59 | ||
| 20260502040732 | 48 | 0.0 | 0.0 | 0.00 | 0.00 | 0.00 | 59 | ||
| 20260502035732 | 48 | 0.0 | 0.0 | 0.00 | 0.00 | 0.00 | 58 | ||
| 20260502034732 | 48 | 0.0 | 0.0 | 0.00 | 0.00 | 0.00 | 58 | ||
| 20260502033732 | 48 | 0.0 | 0.0 | 0.00 | 0.00 | 0.00 | 57 | ||
| 20260502032733 | 48 | 0.0 | 0.0 | 0.00 | 0.00 | 0.00 | 57 | ||
| 20260502031733 | 48 | 0.0 | 0.0 | 0.00 | 0.00 | 0.00 | 57 | ||
| 20260502030732 | 48 | 0.0 | 0.0 | 0.00 | 0.00 | 0.00 | 56 | ||
| 20260502025732 | 48 | 0.0 | 0.0 | 0.00 | 0.00 | 0.00 | 56 | ||
| 20260502024732 | 48 | 0.0 | 0.0 | 0.00 | 0.00 | 0.00 | 55 | ||
| 20260502023732 | 48 | 0.0 | 0.0 | 0.00 | 0.00 | 0.00 | 54 | ||
| 20260502022733 | 48 | 0.0 | 0.0 | 0.00 | 0.00 | 0.00 | 54 | ||
| 20260502021732 | 48 | 0.0 | 0.0 | 0.00 | 0.00 | 0.00 | 54 | ||
| 20260502020732 | 48 | 0.0 | 0.0 | 0.00 | 0.00 | 0.00 | 53 | ||
| 20260502015732 | 48 | 0.0 | 0.0 | 0.00 | 0.00 | 0.00 | 53 | ||
| 20260502014732 | 49 | 0.0 | 0.0 | 0.00 | 0.00 | 0.00 | 53 | ||
| 20260502013732 | 49 | 0.0 | 0.0 | 0.00 | 0.00 | 0.00 | 53 | ||
| 20260502012733 | 49 | 0.0 | 0.0 | 0.00 | 0.00 | 0.00 | 52 | ||
| 20260502011733 | 49 | 0.0 | 0.0 | 0.00 | 0.00 | 0.00 | 52 | ||
| 20260502010733 | 49 | 0.0 | 0.0 | 0.00 | 0.00 | 0.00 | 51 | ||
| 20260502005733 | 49 | 0.0 | 0.0 | 0.00 | 0.00 | 0.00 | 51 | ||
| 20260502004733 | 49 | 0.0 | 0.0 | 0.00 | 0.00 | 0.00 | 51 | ||
| 20260502003733 | 49 | 0.0 | 0.0 | 0.00 | 0.00 | 0.00 | 51 | ||
| 20260502002733 | 49 | 0.0 | 0.0 | 0.00 | 0.00 | 0.00 | 51 | ||
| 20260502001732 | 49 | 0.0 | 0.0 | 0.00 | 0.00 | 0.00 | 50 | ||
| 20260502000733 | 49 | 0.0 | 0.0 | 0.00 | 0.00 | 0.00 | 50 | ||
| 20260501235732 | 49 | 0.0 | 0.0 | 0.00 | 0.00 | 0.00 | 49 | ||
| 20260501234732 | 49 | 0.0 | 0.0 | 0.00 | 0.00 | 0.00 | 49 | ||
| 20260501233732 | 50 | 0.0 | 0.0 | 0.00 | 0.00 | 0.00 | 48 | ||
| 20260501232732 | 50 | 0.0 | 0.0 | 0.00 | 0.00 | 0.00 | 47 | ||
| 20260501231733 | 51 | 0.0 | 0.0 | 0.00 | 0.00 | 0.00 | 47 | ||
| 20260501230732 | 51 | 0.0 | 0.0 | 0.00 | 0.00 | 0.00 | 46 | ||
| 20260501225732 | 51 | 0.0 | 0.0 | 0.00 | 0.00 | 0.00 | 46 | ||
| 20260501224732 | 51 | 0.0 | 0.0 | 0.00 | 0.00 | 0.00 | 45 | ||
| 20260501223732 | 52 | 0.0 | 0.0 | 0.00 | 0.00 | 0.00 | 45 | ||
| 20260501222733 | 52 | 0.0 | 0.0 | 0.00 | 0.00 | 0.00 | 44 | ||
| 20260501221732 | 53 | 0.0 | 0.0 | 0.00 | 0.00 | 0.00 | 43 | ||
| 20260501220732 | 53 | 0.0 | 0.0 | 0.00 | 0.00 | 0.00 | 43 | ||
| 20260501215732 | 54 | 0.0 | 0.0 | 0.00 | 0.00 | 0.00 | 43 | ||
| 20260501214732 | 54 | 0.0 | 0.0 | 0.00 | 0.00 | 0.00 | 42 | ||
| 20260501213732 | 55 | 0.0 | 0.0 | 0.00 | 0.00 | 0.00 | 42 | ||
| 20260501212733 | 55 | 0.0 | 0.0 | 0.00 | 0.00 | 0.00 | 41 | ||
| 20260501211732 | 56 | 0.0 | 0.0 | 0.00 | 0.00 | 0.00 | 40 | ||
| 20260501210732 | 56 | 0.0 | 0.0 | 0.00 | 0.00 | 0.00 | 40 | ||
| 20260501205732 | 57 | 0.0 | 0.0 | 0.00 | 0.00 | 0.00 | 39 | ||
| 20260501204732 | 57 | 0.0 | 0.0 | 0.00 | 0.00 | 0.00 | 39 | ||
| 20260501203732 | 58 | 0.0 | 0.0 | 0.00 | 0.00 | 0.00 | 38 | ||
| 20260501202733 | 58 | 0.0 | 0.0 | 0.00 | 0.00 | 0.00 | 38 | ||
| 20260501201732 | 59 | 0.0 | 0.0 | 0.00 | 0.00 | 0.00 | 37 | ||
| 20260501200732 | 60 | 0.0 | 0.0 | 0.00 | 0.00 | 0.00 | 36 | ||
| 20260501195732 | 60 | 0.0 | 0.0 | 0.00 | 0.00 | 0.00 | 35 | ||
| 20260501194732 | 61 | 0.0 | 0.0 | 0.00 | 0.00 | 0.00 | 35 | ||
| 20260501193732 | 62 | 0.0 | 0.0 | 0.00 | 0.00 | 0.00 | 34 | ||
| 20260501192733 | 62 | 0.0 | 0.0 | 0.00 | 0.00 | 0.00 | 33 | ||
| 20260501191733 | 63 | 0.0 | 0.0 | 0.00 | 0.00 | 0.00 | 32 | ||
| 20260501190733 | 64 | 0.0 | 0.0 | 0.00 | 0.00 | 0.00 | 30 | ||
| 20260501185733 | 65 | 0.0 | 0.0 | 0.00 | 0.00 | 0.00 | 29 | ||
| 20260501184732 | 66 | 0.0 | 0.0 | 0.00 | 0.00 | 0.00 | 28 | ||
| 20260501183732 | 67 | 0.0 | 0.0 | 0.00 | 0.00 | 0.00 | 27 | ||
| 20260501182733 | 68 | 0.0 | 0.0 | 0.00 | 0.00 | 0.00 | 25 |